Time;durP1;ratioP1;P1;durP2;ratioP2;P2;SDS_P1;SDS_P2;PMS_P1;PMS_P2;Temp;Humidity;BMP_temperature;BMP_pressure;BME280_temperature;BME280_humidity;BME280_pressure;Samples;Min_cycle;Max_cycle;Signal;HPM_P1;HPM_P2
2022/09/25 00:00:53;;;;;;;32.30;25.30;;;;;;;;;;4924069;29;20507;-74
2022/09/25 00:03:21;;;;;;;35.58;25.55;;;;;;;;;;4940324;29;20058;-74
2022/09/25 00:05:48;;;;;;;35.10;24.65;;;;;;;;;;4940044;29;20055;-75
2022/09/25 00:08:16;;;;;;;40.83;25.70;;;;;;;;;;4956236;29;20071;-74
2022/09/25 00:10:45;;;;;;;29.77;23.23;;;;;;;;;;4939733;29;20522;-74
2022/09/25 00:13:12;;;;;;;29.38;23.15;;;;;;;;;;4939194;29;20519;-75
2022/09/25 00:15:47;;;;;;;33.05;24.80;;;;;;;;;;4939950;29;20066;-75
2022/09/25 00:18:15;;;;;;;32.42;23.90;;;;;;;;;;4929968;28;20062;-75
2022/09/25 00:20:42;;;;;;;32.95;24.30;;;;;;;;;;4959348;28;20066;-76
2022/09/25 00:23:09;;;;;;;33.33;23.98;;;;;;;;;;4958921;28;20051;-75
2022/09/25 00:25:36;;;;;;;32.60;24.38;;;;;;;;;;4946443;29;20078;-76
2022/09/25 00:28:02;;;;;;;37.25;25.23;;;;;;;;;;4920327;29;20052;-76
2022/09/25 00:30:29;;;;;;;44.08;28.40;;;;;;;;;;4921159;29;20078;-75
2022/09/25 00:32:56;;;;;;;34.63;25.10;;;;;;;;;;4920583;29;20531;-75
2022/09/25 00:35:23;;;;;;;33.55;24.02;;;;;;;;;;4920467;29;20061;-75
2022/09/25 00:37:49;;;;;;;35.15;24.67;;;;;;;;;;4920203;29;20047;-74
2022/09/25 00:40:16;;;;;;;36.55;25.00;;;;;;;;;;4934676;29;20059;-75
2022/09/25 00:42:43;;;;;;;35.97;26.30;;;;;;;;;;4924012;29;20447;-75
2022/09/25 00:45:19;;;;;;;35.72;25.00;;;;;;;;;;4939262;29;20051;-75
2022/09/25 00:47:52;;;;;;;43.10;26.33;;;;;;;;;;4923579;29;20059;-74
2022/09/25 00:50:31;;;;;;;42.47;27.48;;;;;;;;;;4908437;29;20059;-76
2022/09/25 00:53:11;;;;;;;38.30;26.52;;;;;;;;;;4936242;29;20047;-76
2022/09/25 00:55:38;;;;;;;40.92;28.27;;;;;;;;;;4946651;29;20066;-76
2022/09/25 00:58:05;;;;;;;35.53;25.75;;;;;;;;;;4923363;29;20419;-75
2022/09/25 01:00:32;;;;;;;38.63;26.25;;;;;;;;;;4955315;29;20494;-75
2022/09/25 01:02:58;;;;;;;43.28;25.95;;;;;;;;;;4923128;29;20439;-75
2022/09/25 01:05:28;;;;;;;35.60;26.02;;;;;;;;;;4923436;29;20047;-75
2022/09/25 01:07:56;;;;;;;37.65;26.00;;;;;;;;;;4938730;29;20615;-75
2022/09/25 01:10:23;;;;;;;35.28;26.10;;;;;;;;;;4907894;29;20055;-75
2022/09/25 01:12:50;;;;;;;33.97;24.60;;;;;;;;;;4935377;29;20055;-76
2022/09/25 01:15:19;;;;;;;32.03;25.85;;;;;;;;;;4904357;29;20139;-75
2022/09/25 01:18:16;;;;;;;34.85;24.60;;;;;;;;;;4932565;29;20059;-74
2022/09/25 01:21:19;;;;;;;40.63;26.35;;;;;;;;;;4917302;29;20051;-74
2022/09/25 01:24:30;;;;;;;36.80;26.03;;;;;;;;;;4938352;29;20047;-75
2022/09/25 01:27:15;;;;;;;36.78;25.73;;;;;;;;;;4913793;29;20052;-77
2022/09/25 01:29:57;;;;;;;36.67;25.67;;;;;;;;;;4938246;29;20066;-77
2022/09/25 01:32:42;;;;;;;33.67;25.40;;;;;;;;;;4938441;29;20492;-76
2022/09/25 01:35:15;;;;;;;35.10;25.65;;;;;;;;;;4919817;29;20055;-75
2022/09/25 01:38:01;;;;;;;35.80;27.20;;;;;;;;;;4938065;29;20062;-76
2022/09/25 01:40:36;;;;;;;36.80;26.33;;;;;;;;;;4938596;29;20506;-74
2022/09/25 01:43:13;;;;;;;36.60;26.73;;;;;;;;;;4907615;29;20062;-75
2022/09/25 01:46:10;;;;;;;32.75;24.55;;;;;;;;;;4938991;29;20055;-77
2022/09/25 01:48:37;;;;;;;30.73;24.45;;;;;;;;;;4938917;29;20055;-77
2022/09/25 01:51:09;;;;;;;35.25;25.92;;;;;;;;;;4924451;29;20475;-78
2022/09/25 01:53:59;;;;;;;32.95;26.13;;;;;;;;;;4924032;29;20051;-77
2022/09/25 01:56:52;;;;;;;34.15;25.85;;;;;;;;;;4925916;29;20058;-77
2022/09/25 01:59:48;;;;;;;32.55;25.70;;;;;;;;;;4920088;29;20052;-77
2022/09/25 02:02:18;;;;;;;34.58;24.42;;;;;;;;;;4935016;29;20515;-77
2022/09/25 02:04:54;;;;;;;36.55;25.90;;;;;;;;;;4919493;29;20055;-77
2022/09/25 02:07:24;;;;;;;38.47;25.45;;;;;;;;;;4925269;29;20054;-77
2022/09/25 02:09:53;;;;;;;33.80;25.85;;;;;;;;;;4922234;29;20055;-77
2022/09/25 02:12:26;;;;;;;36.80;25.77;;;;;;;;;;4923873;29;20055;-80
2022/09/25 02:14:55;;;;;;;37.85;27.17;;;;;;;;;;4927110;29;20055;-81
2022/09/25 02:20:31;;;;;;;31.60;23.55;;;;;;;;;;4946291;29;20066;-80
2022/09/25 02:23:11;;;;;;;29.90;23.58;;;;;;;;;;4915465;29;20480;-78
2022/09/25 02:26:01;;;;;;;29.75;23.15;;;;;;;;;;4926808;29;20047;-79
2022/09/25 02:28:28;;;;;;;27.95;22.33;;;;;;;;;;4932738;29;20419;-79
2022/09/25 02:30:55;;;;;;;27.40;21.23;;;;;;;;;;4953738;29;20047;-79
2022/09/25 02:33:23;;;;;;;26.52;20.65;;;;;;;;;;4940142;29;20055;-78
2022/09/25 02:35:49;;;;;;;27.10;20.70;;;;;;;;;;4945009;29;20059;-79
2022/09/25 02:38:16;;;;;;;30.15;21.48;;;;;;;;;;4941021;29;20130;-79
2022/09/25 02:40:47;;;;;;;26.35;18.77;;;;;;;;;;4926432;29;20070;-79
2022/09/25 02:43:38;;;;;;;23.83;19.27;;;;;;;;;;4926154;29;20086;-78
2022/09/25 02:46:48;;;;;;;21.95;18.13;;;;;;;;;;4910578;29;20051;-78
2022/09/25 02:49:45;;;;;;;23.92;18.52;;;;;;;;;;4936480;29;20056;-78
2022/09/25 02:52:24;;;;;;;24.98;19.30;;;;;;;;;;4922728;29;20058;-78
2022/09/25 02:55:06;;;;;;;24.45;20.20;;;;;;;;;;4921485;29;20412;-78
2022/09/25 02:57:52;;;;;;;24.13;18.35;;;;;;;;;;4913112;29;20043;-78
2022/09/25 03:00:22;;;;;;;25.05;17.75;;;;;;;;;;4911181;29;20491;-79
2022/09/25 03:02:55;;;;;;;23.02;18.45;;;;;;;;;;4910630;29;20208;-78
2022/09/25 03:05:22;;;;;;;24.30;18.67;;;;;;;;;;4909750;29;20051;-78
2022/09/25 03:10:38;;;;;;;23.20;18.23;;;;;;;;;;4956078;29;20051;-78
2022/09/25 03:13:18;;;;;;;26.33;20.25;;;;;;;;;;4953835;29;20052;-77
2022/09/25 03:15:50;;;;;;;24.50;19.30;;;;;;;;;;4937430;29;20058;-77
2022/09/25 03:18:18;;;;;;;25.17;19.65;;;;;;;;;;4936000;29;20051;-75
2022/09/25 03:20:44;;;;;;;28.08;20.33;;;;;;;;;;4930497;29;20062;-79
2022/09/25 03:23:11;;;;;;;24.65;19.90;;;;;;;;;;4940459;28;20051;-78
2022/09/25 03:25:38;;;;;;;27.80;20.95;;;;;;;;;;4959891;28;20051;-78
2022/09/25 03:28:09;;;;;;;31.88;20.83;;;;;;;;;;4932305;29;20058;-78
2022/09/25 03:30:39;;;;;;;24.23;18.77;;;;;;;;;;4923983;29;20056;-77
2022/09/25 03:33:08;;;;;;;24.27;19.02;;;;;;;;;;4906476;29;20062;-77
2022/09/25 03:35:36;;;;;;;27.27;20.40;;;;;;;;;;4921454;29;20059;-77
2022/09/25 03:38:03;;;;;;;28.45;20.90;;;;;;;;;;4920906;29;20062;-77
2022/09/25 03:40:30;;;;;;;26.05;20.13;;;;;;;;;;4921393;29;20059;-77
2022/09/25 03:42:58;;;;;;;26.17;20.05;;;;;;;;;;4937160;29;20183;-77
2022/09/25 03:45:25;;;;;;;27.20;20.30;;;;;;;;;;4954610;29;20059;-77
2022/09/25 03:47:51;;;;;;;27.13;20.38;;;;;;;;;;4936857;29;20054;-76
2022/09/25 03:50:18;;;;;;;25.00;19.67;;;;;;;;;;4936633;29;20055;-76
2022/09/25 03:52:45;;;;;;;25.20;20.20;;;;;;;;;;4921197;29;20074;-76
2022/09/25 03:55:12;;;;;;;24.27;18.55;;;;;;;;;;4936659;29;20059;-76
2022/09/25 03:57:38;;;;;;;26.20;18.95;;;;;;;;;;4920607;29;20044;-75
2022/09/25 04:00:05;;;;;;;26.27;19.00;;;;;;;;;;4953816;28;20058;-77
2022/09/25 04:02:32;;;;;;;25.80;19.65;;;;;;;;;;4940223;29;20055;-75
2022/09/25 04:04:59;;;;;;;27.27;20.85;;;;;;;;;;4956395;29;20106;-76
2022/09/25 04:07:27;;;;;;;28.20;20.13;;;;;;;;;;4955767;29;20044;-76
2022/09/25 04:09:53;;;;;;;28.25;20.67;;;;;;;;;;4939649;29;20063;-76
2022/09/25 04:12:20;;;;;;;25.83;20.38;;;;;;;;;;4956996;29;20059;-75
2022/09/25 04:14:47;;;;;;;28.25;20.98;;;;;;;;;;4939999;29;20088;-76
2022/09/25 04:17:13;;;;;;;26.77;19.98;;;;;;;;;;4955858;29;20052;-76
2022/09/25 04:19:40;;;;;;;26.85;20.13;;;;;;;;;;4908274;29;20051;-77
2022/09/25 04:22:07;;;;;;;26.92;20.70;;;;;;;;;;4924284;29;20068;-75
2022/09/25 04:24:49;;;;;;;27.27;21.20;;;;;;;;;;4924254;29;20427;-76
2022/09/25 04:27:21;;;;;;;26.35;20.00;;;;;;;;;;4912293;29;20043;-76
2022/09/25 04:29:48;;;;;;;29.33;21.15;;;;;;;;;;4920231;29;20059;-75
2022/09/25 04:35:01;;;;;;;29.55;20.95;;;;;;;;;;4950867;29;20051;-75
2022/09/25 04:37:27;;;;;;;30.92;22.30;;;;;;;;;;4940814;28;20047;-74
2022/09/25 04:39:55;;;;;;;25.08;19.58;;;;;;;;;;4949915;29;20047;-75
2022/09/25 04:42:25;;;;;;;29.08;21.42;;;;;;;;;;4955698;29;20062;-75
2022/09/25 04:44:53;;;;;;;29.73;21.25;;;;;;;;;;4955457;29;20051;-76
2022/09/25 04:47:21;;;;;;;27.92;20.42;;;;;;;;;;4955831;29;20455;-74
2022/09/25 04:49:48;;;;;;;29.58;21.75;;;;;;;;;;4955819;29;20051;-75
2022/09/25 04:52:16;;;;;;;27.13;20.02;;;;;;;;;;4955347;29;20371;-75
2022/09/25 04:54:43;;;;;;;28.95;20.52;;;;;;;;;;4923560;29;20066;-75
2022/09/25 04:57:13;;;;;;;29.02;20.65;;;;;;;;;;4939342;29;20514;-76
2022/09/25 05:00:00;;;;;;;26.88;19.83;;;;;;;;;;4948242;28;20054;-76
2022/09/25 05:02:27;;;;;;;28.98;20.75;;;;;;;;;;4940853;28;20055;-76
2022/09/25 05:04:54;;;;;;;27.05;20.25;;;;;;;;;;4935838;29;20088;-75
2022/09/25 05:07:21;;;;;;;29.27;21.55;;;;;;;;;;4920091;29;20133;-75
2022/09/25 05:09:48;;;;;;;26.45;20.90;;;;;;;;;;4905548;29;20348;-80
2022/09/25 05:12:14;;;;;;;27.80;20.65;;;;;;;;;;4922684;29;20052;-79
2022/09/25 05:14:41;;;;;;;30.02;21.02;;;;;;;;;;4940706;29;20082;-78
2022/09/25 05:17:10;;;;;;;30.23;20.58;;;;;;;;;;4941417;29;20055;-80
2022/09/25 05:19:37;;;;;;;29.42;20.60;;;;;;;;;;4934029;29;20129;-79
2022/09/25 05:22:04;;;;;;;26.90;18.58;;;;;;;;;;4910343;29;20059;-79
2022/09/25 05:24:31;;;;;;;27.75;19.48;;;;;;;;;;4931162;29;20047;-79
2022/09/25 05:26:57;;;;;;;28.70;20.25;;;;;;;;;;4942078;29;20055;-79
2022/09/25 05:29:24;;;;;;;28.13;20.92;;;;;;;;;;4909133;29;20047;-79
2022/09/25 05:31:51;;;;;;;29.25;20.92;;;;;;;;;;4927113;29;20463;-79
2022/09/25 05:34:18;;;;;;;30.55;21.20;;;;;;;;;;4927730;29;20062;-79
2022/09/25 05:36:44;;;;;;;27.55;20.63;;;;;;;;;;4928678;29;20055;-80
2022/09/25 05:39:11;;;;;;;28.15;19.75;;;;;;;;;;4959534;29;20055;-80
2022/09/25 05:41:40;;;;;;;30.08;21.50;;;;;;;;;;4929328;29;20059;-80
2022/09/25 05:44:08;;;;;;;28.27;19.65;;;;;;;;;;4912569;29;20121;-79
2022/09/25 05:46:35;;;;;;;26.33;19.10;;;;;;;;;;4929957;28;20074;-79
2022/09/25 05:49:03;;;;;;;26.23;19.05;;;;;;;;;;4938888;29;20039;-80
2022/09/25 05:51:31;;;;;;;25.60;17.98;;;;;;;;;;4933776;29;20053;-81
2022/09/25 05:53:59;;;;;;;23.08;16.52;;;;;;;;;;4924069;29;20480;-80
2022/09/25 05:56:26;;;;;;;22.25;15.80;;;;;;;;;;4939421;29;20059;-75
2022/09/25 05:58:53;;;;;;;19.05;15.02;;;;;;;;;;4937743;29;20055;-75
2022/09/25 06:01:20;;;;;;;18.35;14.10;;;;;;;;;;4937843;29;20051;-74
2022/09/25 06:03:47;;;;;;;20.00;14.52;;;;;;;;;;4938456;29;20420;-77
2022/09/25 06:06:14;;;;;;;18.50;13.77;;;;;;;;;;4938360;29;20069;-74
2022/09/25 06:08:40;;;;;;;16.73;13.45;;;;;;;;;;4950788;29;20056;-76
2022/09/25 06:11:07;;;;;;;17.83;13.77;;;;;;;;;;4919646;29;20058;-76
2022/09/25 06:13:35;;;;;;;18.50;14.25;;;;;;;;;;4918698;29;20052;-74
2022/09/25 06:16:04;;;;;;;17.65;14.00;;;;;;;;;;4917384;29;20055;-77
2022/09/25 06:18:32;;;;;;;19.88;15.05;;;;;;;;;;4935691;29;20142;-77
2022/09/25 06:21:01;;;;;;;16.75;13.77;;;;;;;;;;4920726;29;20062;-76
2022/09/25 06:23:28;;;;;;;15.55;13.05;;;;;;;;;;4936258;29;20573;-77
2022/09/25 06:26:05;;;;;;;15.48;13.05;;;;;;;;;;4920959;29;20063;-77
2022/09/25 06:28:33;;;;;;;15.52;11.60;;;;;;;;;;4936025;29;20051;-77
2022/09/25 06:31:01;;;;;;;14.63;11.82;;;;;;;;;;4952088;29;20058;-75
2022/09/25 06:33:28;;;;;;;15.65;12.43;;;;;;;;;;4953177;29;20059;-77
2022/09/25 06:35:54;;;;;;;16.52;12.52;;;;;;;;;;4935978;29;20055;-78
2022/09/25 06:38:21;;;;;;;17.00;12.55;;;;;;;;;;4935887;29;20051;-76
2022/09/25 06:40:48;;;;;;;16.75;12.35;;;;;;;;;;4920079;29;20082;-76
2022/09/25 06:43:15;;;;;;;14.30;11.55;;;;;;;;;;4936089;29;20059;-77
2022/09/25 06:45:42;;;;;;;14.25;11.77;;;;;;;;;;4920321;29;20058;-77
2022/09/25 06:48:12;;;;;;;14.85;12.23;;;;;;;;;;4910539;28;20137;-82
2022/09/25 06:50:49;;;;;;;15.48;12.07;;;;;;;;;;4942624;29;20051;-81
2022/09/25 06:53:16;;;;;;;13.35;11.43;;;;;;;;;;4923013;29;20062;-80
2022/09/25 06:55:46;;;;;;;13.23;10.63;;;;;;;;;;4921657;29;20091;-79
2022/09/25 06:58:16;;;;;;;13.52;11.45;;;;;;;;;;4922109;29;20055;-81
2022/09/25 07:00:48;;;;;;;15.93;11.98;;;;;;;;;;4921477;29;20059;-81
2022/09/25 07:06:01;;;;;;;15.43;12.55;;;;;;;;;;4953222;29;20067;-78
2022/09/25 07:08:28;;;;;;;14.85;12.82;;;;;;;;;;4951697;29;20051;-80
2022/09/25 07:10:56;;;;;;;15.85;13.13;;;;;;;;;;4916868;29;20459;-79
2022/09/25 07:13:25;;;;;;;15.90;12.48;;;;;;;;;;4932932;29;20071;-78
2022/09/25 07:15:58;;;;;;;13.75;10.80;;;;;;;;;;4916616;29;20059;-80
2022/09/25 07:18:27;;;;;;;12.77;10.73;;;;;;;;;;4921917;29;20155;-82
2022/09/25 07:21:01;;;;;;;12.13;9.73;;;;;;;;;;4917308;29;20065;-77
2022/09/25 07:23:29;;;;;;;12.43;10.43;;;;;;;;;;4912369;29;20438;-79
2022/09/25 07:26:05;;;;;;;13.10;10.75;;;;;;;;;;4932776;29;20063;-79
2022/09/25 07:28:35;;;;;;;14.02;10.88;;;;;;;;;;4923739;29;20083;-78
2022/09/25 07:31:19;;;;;;;13.25;10.68;;;;;;;;;;4939139;28;20074;-80
2022/09/25 07:33:47;;;;;;;15.13;10.43;;;;;;;;;;4918361;29;20063;-79
2022/09/25 07:36:15;;;;;;;12.85;10.38;;;;;;;;;;4940207;29;20106;-80
2022/09/25 07:38:42;;;;;;;11.57;10.15;;;;;;;;;;4930704;29;20047;-77
2022/09/25 07:41:10;;;;;;;12.25;10.13;;;;;;;;;;4913758;29;20069;-77
2022/09/25 07:43:37;;;;;;;12.07;10.13;;;;;;;;;;4939563;29;20063;-76
2022/09/25 07:46:04;;;;;;;11.30;9.68;;;;;;;;;;4938704;29;20055;-78
2022/09/25 07:48:32;;;;;;;12.30;10.00;;;;;;;;;;4920238;29;20531;-77
2022/09/25 07:51:06;;;;;;;11.88;9.68;;;;;;;;;;4937638;29;20059;-77
2022/09/25 07:53:33;;;;;;;12.02;9.73;;;;;;;;;;4943182;29;20056;-77
2022/09/25 07:56:00;;;;;;;11.50;9.27;;;;;;;;;;4940547;29;20047;-77
2022/09/25 07:58:33;;;;;;;12.68;10.35;;;;;;;;;;4936061;29;20051;-77
2022/09/25 08:01:02;;;;;;;14.98;12.50;;;;;;;;;;4909254;29;20059;-78
2022/09/25 08:03:29;;;;;;;15.13;11.73;;;;;;;;;;4937063;29;20059;-78
2022/09/25 08:05:57;;;;;;;12.60;11.27;;;;;;;;;;4937323;29;20082;-78
2022/09/25 08:08:26;;;;;;;13.70;11.60;;;;;;;;;;4930762;29;20522;-77
2022/09/25 08:10:54;;;;;;;14.27;11.57;;;;;;;;;;4933498;29;20047;-77
2022/09/25 08:13:21;;;;;;;14.35;11.15;;;;;;;;;;4934800;29;21061;-77
2022/09/25 08:15:48;;;;;;;12.50;10.35;;;;;;;;;;4935361;29;20043;-78
2022/09/25 08:18:15;;;;;;;11.38;9.70;;;;;;;;;;4939123;28;20054;-78
2022/09/25 08:20:42;;;;;;;13.77;11.10;;;;;;;;;;4932090;29;20635;-78
2022/09/25 08:23:09;;;;;;;12.90;10.27;;;;;;;;;;4951411;28;20486;-78
2022/09/25 08:25:36;;;;;;;12.38;10.45;;;;;;;;;;4928867;29;20051;-78
2022/09/25 08:28:03;;;;;;;14.10;11.38;;;;;;;;;;4944806;29;20059;-74
2022/09/25 08:30:30;;;;;;;12.52;10.32;;;;;;;;;;4947680;29;20055;-82
2022/09/25 08:32:57;;;;;;;12.68;11.38;;;;;;;;;;4914764;29;20122;-78
2022/09/25 08:35:24;;;;;;;12.82;11.10;;;;;;;;;;4933847;29;20051;-78
2022/09/25 08:37:51;;;;;;;14.25;12.05;;;;;;;;;;4947022;29;20538;-78
2022/09/25 08:40:19;;;;;;;17.25;14.85;;;;;;;;;;4935767;29;20058;-78
2022/09/25 08:42:48;;;;;;;13.75;12.25;;;;;;;;;;4944905;29;20059;-78
2022/09/25 08:51:19;;;;;;;13.70;11.15;;;;;;;;;;4949115;29;20051;-78
2022/09/25 08:53:46;;;;;;;11.85;10.30;;;;;;;;;;4946514;29;20055;-79
2022/09/25 08:56:13;;;;;;;12.75;10.90;;;;;;;;;;4928941;29;20062;-79
2022/09/25 08:59:22;;;;;;;11.35;10.07;;;;;;;;;;4937805;29;20095;-79
2022/09/25 09:01:52;;;;;;;10.95;9.85;;;;;;;;;;4948161;28;20074;-79
2022/09/25 09:04:25;;;;;;;10.77;9.05;;;;;;;;;;4932029;29;20067;-79
2022/09/25 09:06:55;;;;;;;11.10;9.10;;;;;;;;;;4919607;29;20058;-79
2022/09/25 09:09:47;;;;;;;8.45;7.57;;;;;;;;;;4925981;29;20140;-79
2022/09/25 09:12:19;;;;;;;10.18;7.85;;;;;;;;;;4931939;29;20055;-79
2022/09/25 09:14:47;;;;;;;9.65;8.30;;;;;;;;;;4931807;29;20051;-80
2022/09/25 09:17:23;;;;;;;9.43;8.27;;;;;;;;;;4916795;29;20051;-79
2022/09/25 09:19:52;;;;;;;10.45;8.07;;;;;;;;;;4946864;28;20054;-80
2022/09/25 09:22:50;;;;;;;9.70;8.27;;;;;;;;;;4930044;29;20051;-80
2022/09/25 09:25:23;;;;;;;10.27;8.65;;;;;;;;;;4929613;29;20051;-79
2022/09/25 09:27:55;;;;;;;;;;;;;;;;;;4946126;29;20083;-80
2022/09/25 09:30:42;;;;;;;12.32;10.00;;;;;;;;;;4934760;29;19930;-80
2022/09/25 09:33:25;;;;;;;12.98;10.00;;;;;;;;;;4917421;29;20059;-79
2022/09/25 09:36:11;;;;;;;12.25;9.70;;;;;;;;;;4930611;29;20411;-79
2022/09/25 09:38:49;;;;;;;10.10;9.00;;;;;;;;;;4939451;29;20059;-78
2022/09/25 09:41:50;;;;;;;11.02;9.82;;;;;;;;;;4948488;29;20496;-80
2022/09/25 09:44:24;;;;;;;11.75;9.77;;;;;;;;;;4946878;29;20511;-77
2022/09/25 09:47:24;;;;;;;10.07;7.88;;;;;;;;;;4951578;28;20055;-76
2022/09/25 09:50:02;;;;;;;10.65;9.02;;;;;;;;;;4928038;29;20084;-77
2022/09/25 09:52:35;;;;;;;11.00;8.52;;;;;;;;;;4914316;29;20063;-77
2022/09/25 09:55:14;;;;;;;13.88;9.65;;;;;;;;;;4924808;29;20059;-77
2022/09/25 09:57:46;;;;;;;11.40;9.07;;;;;;;;;;4943417;28;20061;-78
2022/09/25 10:00:15;;;;;;;11.25;8.38;;;;;;;;;;4944346;29;20416;-77
2022/09/25 10:02:50;;;;;;;9.32;8.27;;;;;;;;;;4932092;29;20051;-78
2022/09/25 10:05:35;;;;;;;9.45;8.07;;;;;;;;;;4945783;28;20086;-78
2022/09/25 10:08:03;;;;;;;10.02;8.55;;;;;;;;;;4928338;29;20062;-77
2022/09/25 10:10:37;;;;;;;11.05;9.55;;;;;;;;;;4924764;29;20043;-78
2022/09/25 10:13:10;;;;;;;13.90;9.73;;;;;;;;;;4945732;29;20486;-78
2022/09/25 10:15:44;;;;;;;11.20;9.63;;;;;;;;;;4933488;28;20062;-78
2022/09/25 10:18:11;;;;;;;12.05;9.30;;;;;;;;;;4945382;28;20055;-77
2022/09/25 10:21:04;;;;;;;10.75;9.63;;;;;;;;;;4940910;29;20055;-76
2022/09/25 10:23:38;;;;;;;11.30;9.45;;;;;;;;;;4951919;29;20075;-76
2022/09/25 10:26:32;;;;;;;12.50;9.80;;;;;;;;;;4928482;29;20094;-77
2022/09/25 10:29:00;;;;;;;10.60;9.55;;;;;;;;;;4941080;28;20052;-77
2022/09/25 10:31:32;;;;;;;12.40;10.30;;;;;;;;;;4933175;29;20500;-77
2022/09/25 10:34:12;;;;;;;12.82;9.93;;;;;;;;;;4916978;29;20051;-77
2022/09/25 10:36:46;;;;;;;11.95;10.05;;;;;;;;;;4939351;28;20055;-77
2022/09/25 10:39:30;;;;;;;10.52;9.35;;;;;;;;;;4927981;29;20043;-76
2022/09/25 10:42:33;;;;;;;12.50;11.20;;;;;;;;;;4930260;29;20067;-76
2022/09/25 10:45:19;;;;;;;12.68;9.70;;;;;;;;;;4939550;29;20047;-76
2022/09/25 10:50:30;;;;;;;13.30;9.82;;;;;;;;;;4942122;29;20055;-77
2022/09/25 10:53:02;;;;;;;11.48;9.68;;;;;;;;;;4914337;29;20069;-77
2022/09/25 10:55:35;;;;;;;12.43;10.05;;;;;;;;;;4933166;29;20058;-77
2022/09/25 10:58:05;;;;;;;14.05;9.93;;;;;;;;;;4919369;29;20400;-77
2022/09/25 11:00:41;;;;;;;14.13;11.30;;;;;;;;;;4938602;29;20059;-77
2022/09/25 11:03:20;;;;;;;14.52;10.73;;;;;;;;;;4929107;29;20055;-77
2022/09/25 11:06:09;;;;;;;13.98;11.40;;;;;;;;;;4942387;29;20044;-79
2022/09/25 11:08:38;;;;;;;17.13;12.13;;;;;;;;;;4913563;29;20058;-79
2022/09/25 11:11:06;;;;;;;16.42;11.85;;;;;;;;;;4932493;29;20051;-79
2022/09/25 11:13:54;;;;;;;14.80;11.80;;;;;;;;;;4930363;29;20066;-79
2022/09/25 11:16:21;;;;;;;15.90;11.75;;;;;;;;;;4927888;29;20052;-79
2022/09/25 11:18:49;;;;;;;17.00;12.23;;;;;;;;;;4937848;28;20082;-80
2022/09/25 11:21:26;;;;;;;14.73;12.07;;;;;;;;;;4946276;29;20078;-80
2022/09/25 11:24:02;;;;;;;17.60;12.90;;;;;;;;;;4933545;29;20055;-79
2022/09/25 11:26:35;;;;;;;14.73;12.43;;;;;;;;;;4943999;29;20059;-79
2022/09/25 11:29:08;;;;;;;16.88;13.00;;;;;;;;;;4920602;29;20061;-80
2022/09/25 11:31:41;;;;;;;16.88;12.38;;;;;;;;;;4940142;29;20055;-82
2022/09/25 11:34:35;;;;;;;15.38;12.95;;;;;;;;;;4933158;29;20054;-81
2022/09/25 11:37:10;;;;;;;15.80;13.13;;;;;;;;;;4942501;29;20051;-82
2022/09/25 11:42:40;;;;;;;15.02;13.27;;;;;;;;;;4925207;29;20440;-78
2022/09/25 11:45:14;;;;;;;15.95;13.18;;;;;;;;;;4934587;29;20062;-80
2022/09/25 11:48:22;;;;;;;17.42;13.93;;;;;;;;;;4921236;29;20050;-80
2022/09/25 11:50:48;;;;;;;18.02;13.52;;;;;;;;;;4920455;29;20051;-79
2022/09/25 11:53:18;;;;;;;18.38;14.35;;;;;;;;;;4951331;29;20066;-79
2022/09/25 11:56:09;;;;;;;18.83;14.07;;;;;;;;;;4949837;28;20051;-79
2022/09/25 11:59:07;;;;;;;15.55;12.98;;;;;;;;;;4927638;29;20058;-77
2022/09/25 12:01:38;;;;;;;16.38;12.95;;;;;;;;;;4943418;28;20431;-76
2022/09/25 12:04:17;;;;;;;14.73;13.13;;;;;;;;;;4931020;29;20101;-76
2022/09/25 12:07:11;;;;;;;16.00;13.75;;;;;;;;;;4942323;29;20058;-75
2022/09/25 12:09:46;;;;;;;15.85;12.13;;;;;;;;;;4925849;29;20046;-76
2022/09/25 12:12:19;;;;;;;19.13;13.73;;;;;;;;;;4943001;29;20051;-74
2022/09/25 12:15:05;;;;;;;19.17;14.93;;;;;;;;;;4942304;28;20047;-73
2022/09/25 12:17:45;;;;;;;14.02;12.50;;;;;;;;;;4940746;29;20083;-73
2022/09/25 12:20:50;;;;;;;16.50;14.40;;;;;;;;;;4943341;28;20055;-73
2022/09/25 12:23:27;;;;;;;16.40;12.50;;;;;;;;;;4913457;29;20079;-72
2022/09/25 12:26:16;;;;;;;15.18;12.57;;;;;;;;;;4926863;29;20402;-72
2022/09/25 12:29:06;;;;;;;16.95;12.68;;;;;;;;;;4962891;29;20051;-72
2022/09/25 12:32:13;;;;;;;15.57;12.40;;;;;;;;;;4980894;29;20047;-72
2022/09/25 12:34:54;;;;;;;12.15;10.38;;;;;;;;;;4972450;29;20046;-72
2022/09/25 12:37:49;;;;;;;12.93;11.45;;;;;;;;;;4930437;29;20055;-73
2022/09/25 12:40:27;;;;;;;12.60;10.70;;;;;;;;;;4974605;29;20043;-73
2022/09/25 12:43:02;;;;;;;13.93;9.93;;;;;;;;;;4959412;29;20101;-73
2022/09/25 12:45:48;;;;;;;11.63;9.40;;;;;;;;;;4956176;29;20044;-73
2022/09/25 12:48:45;;;;;;;12.45;8.82;;;;;;;;;;4971600;29;20051;-73
2022/09/25 12:51:40;;;;;;;7.78;6.97;;;;;;;;;;4942199;29;20055;-73
2022/09/25 12:54:33;;;;;;;6.70;6.07;;;;;;;;;;4950320;29;20051;-73
2022/09/25 12:57:17;;;;;;;7.10;6.30;;;;;;;;;;4947933;29;20054;-74
2022/09/25 13:00:02;;;;;;;8.88;5.50;;;;;;;;;;4961889;29;20043;-74
2022/09/25 13:03:10;;;;;;;5.65;4.40;;;;;;;;;;4950010;29;20067;-74
2022/09/25 13:06:02;;;;;;;4.57;4.18;;;;;;;;;;4961843;28;20062;-74
2022/09/25 13:08:43;;;;;;;6.57;4.85;;;;;;;;;;4956516;28;20043;-74
2022/09/25 13:11:35;;;;;;;5.95;5.40;;;;;;;;;;4947291;28;20424;-73
2022/09/25 13:14:01;;;;;;;5.97;5.45;;;;;;;;;;4929758;29;20056;-74
2022/09/25 13:16:28;;;;;;;8.82;6.47;;;;;;;;;;4937424;29;20055;-74
2022/09/25 13:19:27;;;;;;;7.95;6.40;;;;;;;;;;4916734;29;20055;-74
2022/09/25 13:22:06;;;;;;;8.00;6.40;;;;;;;;;;4938908;29;20579;-74
2022/09/25 13:25:00;;;;;;;8.02;6.93;;;;;;;;;;4942284;28;20574;-74
2022/09/25 13:27:29;;;;;;;6.88;6.22;;;;;;;;;;4937790;29;20051;-74
2022/09/25 13:30:03;;;;;;;9.15;7.63;;;;;;;;;;4944822;29;20056;-74
2022/09/25 13:32:33;;;;;;;7.25;6.55;;;;;;;;;;4944850;28;20132;-74
2022/09/25 13:35:03;;;;;;;8.00;7.20;;;;;;;;;;4938732;29;20086;-74
2022/09/25 13:37:34;;;;;;;7.95;6.80;;;;;;;;;;4948069;29;20054;-74
2022/09/25 13:40:42;;;;;;;6.57;5.90;;;;;;;;;;4949567;29;20070;-72
2022/09/25 13:43:26;;;;;;;7.10;5.50;;;;;;;;;;4935541;29;20063;-73
2022/09/25 13:46:21;;;;;;;8.07;6.13;;;;;;;;;;4930616;29;20058;-73
2022/09/25 13:48:54;;;;;;;6.85;6.15;;;;;;;;;;4938984;28;20565;-73
2022/09/25 13:51:21;;;;;;;7.23;6.53;;;;;;;;;;4933915;29;20088;-73
2022/09/25 13:53:59;;;;;;;7.45;6.55;;;;;;;;;;4944127;29;20059;-73
2022/09/25 13:56:47;;;;;;;7.63;6.82;;;;;;;;;;4934276;29;20062;-74
2022/09/25 13:59:14;;;;;;;10.10;7.88;;;;;;;;;;4954813;28;20047;-73
2022/09/25 14:01:56;;;;;;;8.02;7.10;;;;;;;;;;4956284;28;20032;-73
2022/09/25 14:04:28;;;;;;;7.28;6.55;;;;;;;;;;4944867;29;20142;-72
2022/09/25 14:07:11;;;;;;;8.13;6.95;;;;;;;;;;4947069;28;20047;-72
2022/09/25 14:09:44;;;;;;;8.20;7.45;;;;;;;;;;4943603;29;20059;-72
2022/09/25 14:12:28;;;;;;;7.93;7.10;;;;;;;;;;4947732;29;20062;-72
2022/09/25 14:15:02;;;;;;;8.30;7.32;;;;;;;;;;4930386;29;20087;-72
2022/09/25 14:17:30;;;;;;;10.77;9.23;;;;;;;;;;4935062;29;20078;-72
2022/09/25 14:19:59;;;;;;;11.57;7.63;;;;;;;;;;4931978;29;20082;-72
2022/09/25 14:22:43;;;;;;;10.35;8.32;;;;;;;;;;4945943;29;20090;-72
2022/09/25 14:25:33;;;;;;;11.40;7.75;;;;;;;;;;4936126;28;20091;-72
2022/09/25 14:28:02;;;;;;;6.95;6.25;;;;;;;;;;4943355;28;20058;-72
2022/09/25 14:30:29;;;;;;;6.95;6.07;;;;;;;;;;4934881;29;20059;-72
2022/09/25 14:33:35;;;;;;;7.30;6.60;;;;;;;;;;4932737;29;20054;-72
2022/09/25 14:36:07;;;;;;;6.28;5.45;;;;;;;;;;4945586;28;20066;-72
2022/09/25 14:39:11;;;;;;;7.05;6.35;;;;;;;;;;4941229;29;20044;-78
2022/09/25 14:41:51;;;;;;;8.57;6.35;;;;;;;;;;4924223;29;20050;-77
2022/09/25 14:45:01;;;;;;;10.80;8.45;;;;;;;;;;4927788;29;20082;-77
2022/09/25 14:47:32;;;;;;;8.27;7.30;;;;;;;;;;4919124;29;20408;-77
2022/09/25 14:49:59;;;;;;;5.45;4.35;;;;;;;;;;4930099;29;20058;-77
2022/09/25 14:52:28;;;;;;;5.00;4.50;;;;;;;;;;4927991;29;20443;-77
2022/09/25 14:54:55;;;;;;;5.50;4.55;;;;;;;;;;4941760;28;20051;-77
2022/09/25 14:57:27;;;;;;;3.75;2.95;;;;;;;;;;4934860;29;20051;-78
2022/09/25 14:59:57;;;;;;;4.78;3.75;;;;;;;;;;4925370;29;20039;-78
2022/09/25 15:02:32;;;;;;;9.57;8.32;;;;;;;;;;4916936;29;20051;-77
2022/09/25 15:05:22;;;;;;;9.60;7.07;;;;;;;;;;4934620;29;20051;-77
2022/09/25 15:07:49;;;;;;;8.63;7.60;;;;;;;;;;4944924;28;20495;-77
2022/09/25 15:10:32;;;;;;;4.85;4.30;;;;;;;;;;4931467;29;20507;-77
2022/09/25 15:13:13;;;;;;;4.00;3.60;;;;;;;;;;4934441;29;20055;-77
2022/09/25 15:17:20;;;;;;;6.15;5.55;;;;;;;;;;4944085;28;20052;-77
2022/09/25 15:18:27;;;;;;;7.63;5.40;;;;;;;;;;4947480;28;20046;-78
2022/09/25 15:20:54;;;;;;;7.95;7.15;;;;;;;;;;4923300;29;20047;-77
2022/09/25 15:23:20;;;;;;;10.55;8.23;;;;;;;;;;4934326;29;20066;-77
2022/09/25 15:25:52;;;;;;;8.75;7.45;;;;;;;;;;4928790;29;20059;-77
2022/09/25 15:28:23;;;;;;;6.82;6.13;;;;;;;;;;4941233;29;20454;-77